createdAt,value
2023-09-17T00:04:07.766Z,9.27
2023-09-17T00:08:20.960Z,9.80
2023-09-17T00:12:33.325Z,9.85
2023-09-17T00:16:48.114Z,10.40
2023-09-17T00:21:00.380Z,11.40
2023-09-17T00:25:12.719Z,11.15
2023-09-17T00:29:26.584Z,11.65
2023-09-17T00:33:38.904Z,12.07
2023-09-17T00:37:52.995Z,14.80
2023-09-17T00:42:05.338Z,16.27
2023-09-17T00:46:17.743Z,16.08
2023-09-17T00:50:30.721Z,15.57
2023-09-17T00:54:45.470Z,15.00
2023-09-17T00:58:58.248Z,15.02
2023-09-17T01:03:11.357Z,16.70
2023-09-17T01:07:26.199Z,17.23
2023-09-17T01:11:38.477Z,17.65
2023-09-17T01:15:52.653Z,18.08
2023-09-17T01:20:31.077Z,19.52
2023-09-17T01:24:48.953Z,18.45
2023-09-17T01:29:02.518Z,18.77
2023-09-17T01:33:15.446Z,19.75
2023-09-17T01:37:33.651Z,18.73
2023-09-17T01:41:46.327Z,18.73
2023-09-17T01:45:58.788Z,18.80
2023-09-17T01:50:12.704Z,17.17
2023-09-17T01:54:25.669Z,19.23
2023-09-17T01:58:38.311Z,17.42
2023-09-17T02:02:52.010Z,17.25
2023-09-17T02:07:06.173Z,18.40
2023-09-17T02:11:18.542Z,18.33
2023-09-17T02:15:33.880Z,15.80
2023-09-17T02:19:47.178Z,12.40
2023-09-17T02:23:59.455Z,11.57
2023-09-17T02:28:12.192Z,10.30
2023-09-17T02:32:24.505Z,10.52
2023-09-17T02:36:38.014Z,10.18
2023-09-17T02:40:50.382Z,9.90
2023-09-17T02:45:04.739Z,9.10
2023-09-17T02:49:16.997Z,8.20
2023-09-17T02:53:30.202Z,8.30
2023-09-17T02:57:45.056Z,7.90
2023-09-17T03:01:57.406Z,7.68
2023-09-17T03:06:12.032Z,8.35
2023-09-17T03:10:25.701Z,8.20
2023-09-17T03:14:40.785Z,7.70
2023-09-17T03:18:55.906Z,7.10
2023-09-17T03:23:08.801Z,7.45
2023-09-17T03:27:23.860Z,7.60
2023-09-17T03:31:36.515Z,7.47
2023-09-17T03:35:50.898Z,7.65
2023-09-17T03:40:14.381Z,7.38
2023-09-17T03:44:29.050Z,7.50
2023-09-17T03:48:41.373Z,7.47
2023-09-17T03:52:56.623Z,7.15
2023-09-17T03:57:10.738Z,6.93
2023-09-17T04:01:23.249Z,7.30
2023-09-17T04:05:36.263Z,7.57
2023-09-17T04:09:52.463Z,7.22
2023-09-17T04:14:06.314Z,7.53
2023-09-17T04:18:18.508Z,7.53
2023-09-17T04:22:30.893Z,7.20
2023-09-17T04:26:46.155Z,8.35
2023-09-17T04:30:58.673Z,7.43
2023-09-17T04:35:12.209Z,8.18
2023-09-17T04:39:24.638Z,7.75
2023-09-17T04:43:39.841Z,8.05
2023-09-17T04:47:52.674Z,7.45
2023-09-17T04:52:04.989Z,7.43
2023-09-17T04:56:17.454Z,7.60
2023-09-17T05:00:30.148Z,8.18
2023-09-17T05:04:43.930Z,12.32
2023-09-17T05:08:57.535Z,10.45
2023-09-17T05:13:10.092Z,8.00
2023-09-17T05:17:22.917Z,7.53
2023-09-17T05:21:35.186Z,7.22
2023-09-17T05:25:47.540Z,7.03
2023-09-17T05:30:03.507Z,7.13
2023-09-17T05:34:16.469Z,7.38
2023-09-17T05:38:29.306Z,7.05
2023-09-17T05:42:41.651Z,7.25
2023-09-17T05:46:54.838Z,6.78
2023-09-17T05:51:09.141Z,7.63
2023-09-17T05:55:21.626Z,6.53
2023-09-17T05:59:34.103Z,6.60
2023-09-17T06:03:47.637Z,7.15
2023-09-17T06:07:59.993Z,7.35
2023-09-17T06:12:13.644Z,7.38
2023-09-17T06:16:25.964Z,7.75
2023-09-17T06:20:40.341Z,7.25
2023-09-17T06:24:53.360Z,7.30
2023-09-17T06:29:07.025Z,7.43
2023-09-17T06:33:19.523Z,6.80
2023-09-17T06:37:31.990Z,7.05
2023-09-17T06:41:44.531Z,7.15
2023-09-17T06:45:56.870Z,7.45
2023-09-17T06:50:09.347Z,6.80
2023-09-17T06:54:22.003Z,6.93
2023-09-17T06:58:35.380Z,6.90
2023-09-17T07:02:47.981Z,6.45
2023-09-17T07:07:02.282Z,7.85
2023-09-17T07:11:14.533Z,7.95
2023-09-17T07:15:29.574Z,7.07
2023-09-17T07:19:41.853Z,7.82
2023-09-17T07:23:54.208Z,8.00
2023-09-17T07:28:08.921Z,8.20
2023-09-17T07:32:21.364Z,7.30
2023-09-17T07:36:33.571Z,7.90
2023-09-17T07:40:47.094Z,8.43
2023-09-17T07:44:59.304Z,8.38
2023-09-17T07:49:11.684Z,8.30
2023-09-17T07:53:24.371Z,7.10
2023-09-17T07:57:36.638Z,7.15
2023-09-17T08:01:52.913Z,7.55
2023-09-17T08:06:07.269Z,7.78
2023-09-17T08:10:21.248Z,7.55
2023-09-17T08:14:47.114Z,7.78
2023-09-17T08:19:00.593Z,7.35
2023-09-17T08:23:15.519Z,7.97
2023-09-17T08:27:30.390Z,6.53
2023-09-17T08:31:42.771Z,6.25
2023-09-17T08:35:55.701Z,6.22
2023-09-17T08:40:11.730Z,6.13
2023-09-17T08:44:23.978Z,6.40
2023-09-17T08:48:36.260Z,5.55
2023-09-17T08:52:53.407Z,6.13
2023-09-17T08:57:06.406Z,5.70
2023-09-17T09:01:19.098Z,5.18
2023-09-17T09:05:31.878Z,5.10
2023-09-17T09:09:47.662Z,4.68
2023-09-17T09:14:00.334Z,4.03
2023-09-17T09:18:12.806Z,4.10
2023-09-17T09:22:25.773Z,4.03
2023-09-17T09:26:39.822Z,3.63
2023-09-17T09:30:52.992Z,3.80
2023-09-17T09:35:05.765Z,4.30
2023-09-17T09:39:18.041Z,5.20
2023-09-17T09:43:33.384Z,3.80
2023-09-17T09:47:52.556Z,3.60
2023-09-17T09:52:06.283Z,3.92
2023-09-17T09:56:18.662Z,3.20
2023-09-17T10:00:31.380Z,3.00
2023-09-17T10:04:45.089Z,3.30
2023-09-17T10:08:57.597Z,2.80
2023-09-17T10:13:11.478Z,3.25
2023-09-17T10:17:24.190Z,2.58
2023-09-17T10:21:39.679Z,3.00
2023-09-17T10:25:52.363Z,3.80
2023-09-17T10:30:08.177Z,3.30
2023-09-17T10:34:20.745Z,2.88
2023-09-17T10:38:36.294Z,3.53
2023-09-17T10:42:49.504Z,3.72
2023-09-17T10:47:02.771Z,3.90
2023-09-17T10:51:15.568Z,3.53
2023-09-17T10:55:30.446Z,3.70
2023-09-17T10:59:42.999Z,3.85
2023-09-17T11:04:01.744Z,3.80
2023-09-17T11:08:14.331Z,3.30
2023-09-17T11:12:28.415Z,4.53
2023-09-17T11:16:40.902Z,3.13
2023-09-17T11:21:02.153Z,3.17
2023-09-17T11:25:22.640Z,3.25
2023-09-17T11:29:42.429Z,2.85
2023-09-17T11:33:59.408Z,3.42
2023-09-17T11:38:14.026Z,2.83
2023-09-17T11:42:28.302Z,2.67
2023-09-17T11:46:44.026Z,2.80
2023-09-17T11:51:16.373Z,2.45
2023-09-17T11:55:32.128Z,2.65
2023-09-17T11:59:46.865Z,2.60
2023-09-17T12:04:00.430Z,2.10
2023-09-17T12:08:13.042Z,2.13
2023-09-17T12:12:25.462Z,2.80
2023-09-17T12:16:37.835Z,3.30
2023-09-17T12:21:00.865Z,2.50
2023-09-17T12:25:20.681Z,2.25
2023-09-17T12:29:38.955Z,2.80
2023-09-17T12:33:52.509Z,2.45
2023-09-17T12:38:08.246Z,2.53
2023-09-17T12:42:22.836Z,2.67
2023-09-17T12:46:35.418Z,3.08
2023-09-17T12:50:48.216Z,3.40
2023-09-17T12:55:02.596Z,2.80
2023-09-17T12:59:14.976Z,2.88
2023-09-17T13:03:27.401Z,3.00
2023-09-17T13:07:39.889Z,2.97
2023-09-17T13:11:58.368Z,3.17
2023-09-17T13:16:10.754Z,3.00
2023-09-17T13:20:24.479Z,4.32
2023-09-17T13:24:36.726Z,3.22
2023-09-17T13:28:53.145Z,2.97
2023-09-17T13:33:07.648Z,3.53
2023-09-17T13:37:20.388Z,3.97
2023-09-17T13:41:34.155Z,2.90
2023-09-17T13:45:53.969Z,2.97
2023-09-17T13:50:06.622Z,3.20
2023-09-17T13:54:18.993Z,4.07
2023-09-17T13:58:31.266Z,2.90
2023-09-17T14:02:43.565Z,2.90
2023-09-17T14:06:56.785Z,3.35
2023-09-17T14:11:10.000Z,3.33
2023-09-17T14:15:23.779Z,3.30
2023-09-17T14:19:36.236Z,3.30
2023-09-17T14:23:48.553Z,2.80
2023-09-17T14:28:00.889Z,3.72
2023-09-17T14:32:16.521Z,4.03
2023-09-17T14:36:31.065Z,4.10
2023-09-17T14:40:43.429Z,3.90
2023-09-17T14:44:56.909Z,3.97
2023-09-17T14:49:09.128Z,3.80
2023-09-17T14:53:21.455Z,3.38
2023-09-17T14:57:37.299Z,4.07
2023-09-17T15:01:59.672Z,3.90
2023-09-17T15:06:14.050Z,3.92
2023-09-17T15:10:26.439Z,3.47
2023-09-17T15:14:38.621Z,3.72
2023-09-17T15:18:53.984Z,3.50
2023-09-17T15:23:08.639Z,3.95
2023-09-17T15:27:21.992Z,4.00
2023-09-17T15:31:37.924Z,3.50
2023-09-17T15:35:50.246Z,3.72
2023-09-17T15:40:02.457Z,3.67
2023-09-17T15:44:16.463Z,4.00
2023-09-17T15:48:28.917Z,4.00
2023-09-17T15:52:41.264Z,4.00
2023-09-17T15:56:53.746Z,4.00
2023-09-17T16:01:06.289Z,4.32
2023-09-17T16:05:18.642Z,4.50
2023-09-17T16:09:31.054Z,3.80
2023-09-17T16:13:44.650Z,3.88
2023-09-17T16:17:57.999Z,3.80
2023-09-17T16:22:11.382Z,3.80
2023-09-17T16:26:23.720Z,4.18
2023-09-17T16:30:36.001Z,4.10
2023-09-17T16:34:49.523Z,4.05
2023-09-17T16:39:02.744Z,4.72
2023-09-17T16:43:16.694Z,4.53
2023-09-17T16:47:29.869Z,4.78
2023-09-17T16:51:46.483Z,4.80
2023-09-17T16:55:58.844Z,5.00
2023-09-17T17:00:11.346Z,4.55
2023-09-17T17:04:23.703Z,5.30
2023-09-17T17:08:36.154Z,4.10
2023-09-17T17:12:49.465Z,4.75
2023-09-17T17:17:02.994Z,4.85
2023-09-17T17:21:15.330Z,4.90
2023-09-17T17:25:27.732Z,5.57
2023-09-17T17:29:40.095Z,6.40
2023-09-17T17:33:54.591Z,7.22
2023-09-17T17:38:06.935Z,7.72
2023-09-17T17:42:19.243Z,7.85
2023-09-17T17:46:34.458Z,8.57
2023-09-17T17:50:46.935Z,8.75
2023-09-17T17:54:59.221Z,8.40
2023-09-17T17:59:11.616Z,8.13
2023-09-17T18:03:24.604Z,7.90
2023-09-17T18:07:37.529Z,9.13
2023-09-17T18:11:50.581Z,9.70
2023-09-17T18:16:03.161Z,8.90
2023-09-17T18:20:19.077Z,9.85
2023-09-17T18:24:31.353Z,11.20
2023-09-17T18:28:44.407Z,10.73
2023-09-17T18:32:56.692Z,12.32
2023-09-17T18:37:09.036Z,12.35
2023-09-17T18:41:21.965Z,14.05
2023-09-17T18:45:34.597Z,14.80
2023-09-17T18:49:49.418Z,15.55
2023-09-17T18:54:02.079Z,15.90
2023-09-17T18:58:14.387Z,15.10
2023-09-17T19:02:26.780Z,14.68
2023-09-17T19:06:40.311Z,18.27
2023-09-17T19:10:52.627Z,17.88
2023-09-17T19:15:05.971Z,17.33
2023-09-17T19:19:18.404Z,17.52
2023-09-17T19:23:30.752Z,17.25
2023-09-17T19:27:43.585Z,17.65
2023-09-17T19:31:55.956Z,18.13
2023-09-17T19:36:08.242Z,16.92
2023-09-17T19:40:20.589Z,17.25
2023-09-17T19:44:32.886Z,16.42
2023-09-17T19:48:45.323Z,16.95
2023-09-17T19:52:57.787Z,17.80
2023-09-17T19:57:11.124Z,18.48
2023-09-17T20:01:23.692Z,16.23
2023-09-17T20:05:36.221Z,17.00
2023-09-17T20:09:48.516Z,17.38
2023-09-17T20:14:00.759Z,18.90
2023-09-17T20:18:13.095Z,17.83
2023-09-17T20:22:29.535Z,18.63
2023-09-17T20:26:44.618Z,18.20
2023-09-17T20:30:56.837Z,15.52
2023-09-17T20:35:09.336Z,14.63
2023-09-17T20:39:22.107Z,13.13
2023-09-17T20:43:34.397Z,11.98
2023-09-17T20:47:46.861Z,12.35
2023-09-17T20:51:59.950Z,12.15
2023-09-17T20:56:13.709Z,11.60
2023-09-17T21:00:26.929Z,10.68
2023-09-17T21:04:39.301Z,9.23
2023-09-17T21:08:51.887Z,5.90
2023-09-17T21:13:04.579Z,5.65
2023-09-17T21:17:17.252Z,5.70
2023-09-17T21:21:29.678Z,5.90
2023-09-17T21:25:42.428Z,6.15
2023-09-17T21:29:54.757Z,6.28
2023-09-17T21:34:07.099Z,5.80
2023-09-17T21:38:19.461Z,4.90
2023-09-17T21:42:32.126Z,5.78
2023-09-17T21:46:44.531Z,5.82
2023-09-17T21:50:56.949Z,5.70
2023-09-17T21:55:09.357Z,6.00
2023-09-17T21:59:21.820Z,6.28
2023-09-17T22:03:35.655Z,5.85
2023-09-17T22:07:48.299Z,5.95
2023-09-17T22:12:01.425Z,5.03
2023-09-17T22:16:15.159Z,5.35
2023-09-17T22:20:27.544Z,5.38
2023-09-17T22:24:40.116Z,6.00
2023-09-17T22:28:52.852Z,5.60
2023-09-17T22:33:05.326Z,6.20
2023-09-17T22:37:17.732Z,5.60
2023-09-17T22:41:33.272Z,6.07
2023-09-17T22:45:46.234Z,6.10
2023-09-17T22:49:59.422Z,5.68
2023-09-17T22:54:11.657Z,6.20
2023-09-17T22:58:23.966Z,6.00
2023-09-17T23:02:36.311Z,7.22
2023-09-17T23:06:50.111Z,7.60
2023-09-17T23:11:04.665Z,7.45
2023-09-17T23:15:17.053Z,7.97
2023-09-17T23:19:30.852Z,7.78
2023-09-17T23:23:46.561Z,7.60
2023-09-17T23:27:58.799Z,7.50
2023-09-17T23:32:11.511Z,7.90
2023-09-17T23:36:25.603Z,7.28
2023-09-17T23:40:37.951Z,9.98
2023-09-17T23:44:50.328Z,21.90
2023-09-17T23:49:02.991Z,22.95
2023-09-17T23:53:15.208Z,22.13
2023-09-17T23:57:27.402Z,19.45
